Time;durP1;ratioP1;P1;durP2;ratioP2;P2;SDS_P1;SDS_P2;PMS_P1;PMS_P2;Temp;Humidity;BMP_temperature;BMP_pressure;BME280_temperature;BME280_humidity;BME280_pressure;Samples;Min_cycle;Max_cycle;Signal;HPM_P1;HPM_P2
2021/11/17 02:27:38;;;;;;;22.23;15.97;;;6.70;99.90;;;;;;5011997;28;20251;-90
2021/11/17 02:30:04;;;;;;;23.47;16.83;;;6.80;99.90;;;;;;5013930;28;20648;-89
2021/11/17 02:32:54;;;;;;;22.00;16.40;;;6.70;99.90;;;;;;5026258;28;20184;-88
2021/11/17 02:35:28;;;;;;;18.27;14.60;;;6.80;99.90;;;;;;5026649;28;20221;-88
2021/11/17 02:38:32;;;;;;;21.77;16.07;;;6.80;99.90;;;;;;5019551;28;20185;-89
2021/11/17 02:41:16;;;;;;;23.37;15.73;;;6.80;99.90;;;;;;5019258;28;20213;-88
2021/11/17 02:44:15;;;;;;;24.90;17.33;;;6.90;99.90;;;;;;5025475;28;20189;-87
2021/11/17 02:47:01;;;;;;;20.90;15.23;;;6.90;99.90;;;;;;5010749;28;20256;-87
2021/11/17 02:49:40;;;;;;;22.80;16.20;;;6.90;99.90;;;;;;5026400;28;20181;-87
2021/11/17 02:52:18;;;;;;;21.30;14.70;;;6.80;99.90;;;;;;5011015;28;20189;-88
2021/11/17 02:54:46;;;;;;;19.60;15.13;;;6.80;99.90;;;;;;5022088;28;20228;-88
2021/11/17 02:57:30;;;;;;;21.40;15.57;;;6.80;99.90;;;;;;5026389;28;20186;-88
2021/11/17 03:00:34;;;;;;;20.47;15.33;;;6.90;99.90;;;;;;5026222;28;20245;-89
2021/11/17 03:03:24;;;;;;;20.83;15.00;;;6.80;99.90;;;;;;5023957;28;20205;-87
2021/11/17 03:05:53;;;;;;;21.50;16.10;;;6.70;99.90;;;;;;5041367;28;20223;-89
2021/11/17 03:08:43;;;;;;;19.93;14.47;;;6.70;99.90;;;;;;5026170;28;20268;-88
2021/11/17 03:11:24;;;;;;;20.50;15.60;;;6.70;99.90;;;;;;5026953;28;20182;-87
2021/11/17 03:14:19;;;;;;;21.73;15.50;;;6.80;99.90;;;;;;5026768;28;20221;-89
2021/11/17 03:17:05;;;;;;;17.47;12.10;;;6.80;99.90;;;;;;5022635;28;20244;-88
2021/11/17 03:20:05;;;;;;;20.60;13.93;;;6.90;99.90;;;;;;5025778;28;20177;-87
2021/11/17 03:22:34;;;;;;;19.30;13.20;;;6.80;99.90;;;;;;4996963;28;20299;-88
2021/11/17 03:25:27;;;;;;;20.00;13.63;;;6.70;99.90;;;;;;5007738;28;20247;-88
2021/11/17 03:27:53;;;;;;;19.13;14.73;;;6.60;99.90;;;;;;5026934;28;20209;-88
2021/11/17 03:30:40;;;;;;;19.17;14.17;;;6.60;99.90;;;;;;4998629;28;20209;-89
2021/11/17 03:33:44;;;;;;;16.90;12.57;;;6.60;99.90;;;;;;4994136;28;20183;-89
2021/11/17 03:36:21;;;;;;;17.47;13.77;;;6.70;99.90;;;;;;5025095;28;20703;-88
2021/11/17 03:39:15;;;;;;;18.17;13.63;;;6.90;99.90;;;;;;5026491;28;20177;-88
2021/11/17 03:42:03;;;;;;;17.33;13.53;;;6.80;99.90;;;;;;5008424;28;20206;-87
2021/11/17 03:45:04;;;;;;;17.27;13.53;;;6.90;99.90;;;;;;5025603;28;20184;-87
2021/11/17 03:48:18;;;;;;;17.57;13.70;;;6.80;99.90;;;;;;5022312;28;20197;-87
2021/11/17 03:50:50;;;;;;;17.63;13.70;;;6.80;99.90;;;;;;4983528;28;20197;-88
2021/11/17 03:53:21;;;;;;;17.70;13.37;;;6.70;99.90;;;;;;5012520;28;20765;-87
2021/11/17 03:56:03;;;;;;;18.47;13.90;;;6.70;99.90;;;;;;5024797;28;20205;-90
2021/11/17 03:58:40;;;;;;;20.03;13.67;;;6.80;99.90;;;;;;5024354;28;20337;-89
2021/11/17 04:01:24;;;;;;;17.10;13.07;;;6.80;99.90;;;;;;5025741;28;20220;-88
2021/11/17 04:04:11;;;;;;;17.97;14.00;;;6.70;99.90;;;;;;5020939;28;20189;-89
2021/11/17 04:06:49;;;;;;;19.93;13.00;;;6.50;99.90;;;;;;4991980;28;20684;-88
2021/11/17 04:09:50;;;;;;;18.83;13.07;;;6.50;99.90;;;;;;5022927;28;20196;-88
2021/11/17 04:12:19;;;;;;;17.53;12.90;;;6.60;99.90;;;;;;4993689;28;20185;-88
2021/11/17 04:15:00;;;;;;;16.77;11.90;;;6.80;99.90;;;;;;5005387;28;20228;-89
2021/11/17 04:17:39;;;;;;;17.80;12.50;;;6.80;99.90;;;;;;5007624;28;20185;-89
2021/11/17 04:20:28;;;;;;;16.57;12.23;;;6.70;99.90;;;;;;5009890;28;20248;-87
2021/11/17 04:23:24;;;;;;;18.03;12.30;;;6.60;99.90;;;;;;5026103;28;20208;-88
2021/11/17 04:26:13;;;;;;;16.57;11.47;;;6.60;99.90;;;;;;5025107;28;20209;-88
2021/11/17 04:29:03;;;;;;;15.83;12.70;;;6.70;99.90;;;;;;5003766;28;20196;-88
2021/11/17 04:31:38;;;;;;;19.20;13.07;;;6.70;99.90;;;;;;5023143;28;20190;-87
2021/11/17 04:34:36;;;;;;;14.47;11.57;;;6.80;99.90;;;;;;5008061;28;20200;-88
2021/11/17 04:37:04;;;;;;;13.70;11.30;;;6.70;99.90;;;;;;5024559;28;20208;-88
2021/11/17 04:39:52;;;;;;;15.10;11.13;;;6.80;99.90;;;;;;5024925;28;20197;-88
2021/11/17 04:42:27;;;;;;;15.00;11.47;;;7.00;99.90;;;;;;5005909;28;20691;-88
2021/11/17 04:45:11;;;;;;;16.53;11.40;;;7.00;99.90;;;;;;5023886;28;20216;-88
2021/11/17 04:48:13;;;;;;;15.67;11.50;;;6.90;99.90;;;;;;5003316;28;20189;-88
2021/11/17 04:50:42;;;;;;;17.87;11.23;;;6.80;99.90;;;;;;5024234;28;20184;-88
2021/11/17 04:53:07;;;;;;;15.00;10.97;;;6.80;99.90;;;;;;5016300;28;20196;-92
2021/11/17 04:55:49;;;;;;;16.97;10.63;;;6.90;99.90;;;;;;5024606;28;20213;-89
2021/11/17 04:58:44;;;;;;;14.87;11.40;;;7.10;99.90;;;;;;5000436;28;20253;-88
2021/11/17 05:01:16;;;;;;;18.33;11.77;;;6.90;99.90;;;;;;5015712;28;20218;-89
2021/11/17 05:03:57;;;;;;;15.13;11.43;;;6.70;99.90;;;;;;5024112;28;20201;-88
2021/11/17 05:06:29;;;;;;;18.73;12.13;;;6.60;99.90;;;;;;5023100;28;20209;-90
2021/11/17 05:09:15;;;;;;;16.77;11.93;;;6.50;99.90;;;;;;5023945;28;20192;-89
2021/11/17 05:12:02;;;;;;;14.23;11.10;;;6.40;99.90;;;;;;5007575;28;20212;-89
2021/11/17 05:14:42;;;;;;;16.33;11.43;;;6.60;99.90;;;;;;5006058;28;20186;-90
2021/11/17 05:17:20;;;;;;;16.67;11.27;;;6.50;99.90;;;;;;5020824;28;20495;-88
2021/11/17 05:19:55;;;;;;;16.57;11.83;;;6.60;99.90;;;;;;5024917;28;20185;-88
2021/11/17 05:22:43;;;;;;;16.80;11.20;;;6.70;99.90;;;;;;5022660;28;20200;-88
2021/11/17 05:25:29;;;;;;;17.27;11.57;;;6.70;99.90;;;;;;5022033;28;20201;-88
2021/11/17 05:27:58;;;;;;;15.70;11.73;;;6.60;99.90;;;;;;5005588;28;20185;-89
2021/11/17 05:30:45;;;;;;;17.37;11.60;;;6.50;99.90;;;;;;5022196;28;20183;-89
2021/11/17 05:33:27;;;;;;;14.17;10.43;;;6.60;99.90;;;;;;5032295;28;20245;-89
2021/11/17 05:36:04;;;;;;;16.60;11.03;;;6.70;99.90;;;;;;5005119;28;20256;-89
2021/11/17 05:38:54;;;;;;;14.53;10.53;;;6.60;99.90;;;;;;5010636;28;20186;-89
2021/11/17 05:41:35;;;;;;;17.73;11.47;;;6.60;99.90;;;;;;5006927;28;20320;-89
2021/11/17 05:44:04;;;;;;;18.97;11.47;;;6.60;99.90;;;;;;5005387;28;20190;-88
2021/11/17 05:47:00;;;;;;;13.93;10.43;;;6.70;99.90;;;;;;5005107;28;20332;-89
2021/11/17 05:49:47;;;;;;;16.63;10.40;;;6.70;99.90;;;;;;4992030;28;20182;-89
2021/11/17 05:52:31;;;;;;;16.93;10.90;;;6.60;99.90;;;;;;5008289;28;20186;-89
2021/11/17 05:55:04;;;;;;;14.93;11.17;;;6.60;99.90;;;;;;5005679;28;20237;-89
2021/11/17 05:57:32;;;;;;;15.17;10.67;;;6.40;99.90;;;;;;5019257;28;20201;-89
2021/11/17 06:00:13;;;;;;;13.13;9.90;;;6.40;99.90;;;;;;5010875;28;20208;-89
2021/11/17 06:03:06;;;;;;;17.33;10.67;;;6.40;99.90;;;;;;5026431;28;20189;-89
2021/11/17 06:05:32;;;;;;;14.73;9.83;;;6.40;99.90;;;;;;5000401;28;20214;-89
2021/11/17 06:07:57;;;;;;;14.03;10.23;;;6.30;99.90;;;;;;5025703;28;20295;-89
2021/11/17 06:10:47;;;;;;;17.33;10.73;;;6.40;99.90;;;;;;5027037;28;20542;-89
2021/11/17 06:13:15;;;;;;;15.73;11.23;;;6.40;99.90;;;;;;5025635;28;20180;-89
2021/11/17 06:15:43;;;;;;;13.87;10.90;;;6.40;99.90;;;;;;5026429;28;20255;-89
2021/11/17 06:18:14;;;;;;;13.50;9.97;;;6.50;99.90;;;;;;5027360;28;20190;-89
2021/11/17 06:20:41;;;;;;;15.33;9.40;;;6.50;99.90;;;;;;5008690;28;20221;-89
2021/11/17 06:23:33;;;;;;;13.53;9.60;;;6.40;99.90;;;;;;5004814;28;20178;-89
2021/11/17 06:26:00;;;;;;;12.00;9.33;;;6.40;99.90;;;;;;5006416;28;20304;-89
2021/11/17 06:28:28;;;;;;;13.60;9.40;;;6.40;99.90;;;;;;5025983;28;20190;-89
2021/11/17 06:30:57;;;;;;;11.77;9.37;;;6.40;99.90;;;;;;5024233;28;20185;-89
2021/11/17 06:33:23;;;;;;;13.23;9.13;;;6.30;99.90;;;;;;5006703;28;20189;-89
2021/11/17 06:35:49;;;;;;;11.97;9.87;;;6.30;99.90;;;;;;5025719;28;20232;-89
2021/11/17 06:38:17;;;;;;;14.10;9.13;;;6.30;99.90;;;;;;5026031;28;20228;-89
2021/11/17 06:40:45;;;;;;;12.73;8.53;;;6.20;99.90;;;;;;5023728;28;20209;-89
2021/11/17 06:43:12;;;;;;;12.00;8.20;;;6.30;99.90;;;;;;5008995;28;20664;-89
2021/11/17 06:45:47;;;;;;;9.57;7.93;;;6.40;99.90;;;;;;5024152;28;20236;-89
2021/11/17 06:48:14;;;;;;;11.07;8.00;;;6.50;99.90;;;;;;5025432;28;20189;-88
2021/11/17 06:50:43;;;;;;;9.53;7.80;;;6.60;99.90;;;;;;5006590;28;20563;-89
2021/11/17 06:53:09;;;;;;;11.87;8.30;;;6.50;99.90;;;;;;5005295;28;20197;-89
2021/11/17 06:55:35;;;;;;;11.23;8.70;;;6.40;99.90;;;;;;5007875;28;20217;-89
2021/11/17 06:58:03;;;;;;;17.83;15.37;;;6.40;99.90;;;;;;5027389;28;20280;-88
2021/11/17 07:00:31;;;;;;;12.27;8.10;;;6.50;99.90;;;;;;5026224;28;20185;-89
2021/11/17 07:02:57;;;;;;;11.80;7.77;;;6.50;99.90;;;;;;5001726;28;20190;-89
2021/11/17 07:05:23;;;;;;;11.30;8.47;;;6.50;99.90;;;;;;5003985;28;20563;-89
2021/11/17 07:07:52;;;;;;;9.87;7.43;;;6.50;99.90;;;;;;5023986;28;20202;-89
2021/11/17 07:10:18;;;;;;;13.90;9.37;;;6.30;99.90;;;;;;5023723;28;20534;-89
2021/11/17 07:12:44;;;;;;;10.87;7.67;;;6.40;99.90;;;;;;5005274;28;20189;-89
2021/11/17 07:15:12;;;;;;;10.77;8.47;;;6.30;99.90;;;;;;5005723;28;20260;-89
2021/11/17 07:17:38;;;;;;;26.80;24.10;;;6.30;99.90;;;;;;5023453;28;20193;-88
2021/11/17 07:20:06;;;;;;;14.63;11.63;;;6.50;99.90;;;;;;5019946;28;20190;-88
2021/11/17 07:22:32;;;;;;;11.43;8.87;;;6.50;99.90;;;;;;5020870;28;20240;-88
2021/11/17 07:24:57;;;;;;;9.73;7.83;;;6.50;99.90;;;;;;5021976;28;20546;-89
2021/11/17 07:27:24;;;;;;;9.83;8.40;;;6.60;99.90;;;;;;5004322;28;20556;-89
2021/11/17 07:29:53;;;;;;;10.50;7.80;;;6.60;99.90;;;;;;4986801;28;20901;-89
2021/11/17 07:32:22;;;;;;;8.47;6.67;;;6.60;99.90;;;;;;5016420;28;20205;-89
2021/11/17 07:34:48;;;;;;;10.40;7.70;;;6.70;99.90;;;;;;5017522;28;20807;-89
2021/11/17 07:37:14;;;;;;;8.13;5.97;;;6.60;99.90;;;;;;5015832;28;20233;-89
2021/11/17 07:39:40;;;;;;;9.87;6.50;;;6.60;99.20;;;;;;5020455;28;20888;-88
2021/11/17 07:42:06;;;;;;;8.23;6.27;;;6.60;98.20;;;;;;4994957;28;20225;-89
2021/11/17 07:44:32;;;;;;;7.87;5.83;;;6.60;98.50;;;;;;5013311;28;20189;-89
2021/11/17 07:46:58;;;;;;;6.93;6.23;;;6.50;98.30;;;;;;5008298;28;20206;-88
2021/11/17 07:49:26;;;;;;;9.53;6.17;;;6.50;98.40;;;;;;5002176;28;20198;-89
2021/11/17 07:51:53;;;;;;;7.23;5.93;;;6.50;99.50;;;;;;5014945;28;20193;-88
2021/11/17 07:54:19;;;;;;;7.87;5.77;;;6.40;99.50;;;;;;5013306;28;20194;-88
2021/11/17 07:56:46;;;;;;;5.37;4.70;;;6.30;99.80;;;;;;5011973;28;20572;-88
2021/11/17 07:59:16;;;;;;;7.43;6.00;;;6.40;99.00;;;;;;5023001;28;20191;-88
2021/11/17 08:01:45;;;;;;;7.67;5.77;;;6.30;99.90;;;;;;5008008;28;20210;-88
2021/11/17 08:04:19;;;;;;;7.63;5.77;;;6.30;99.90;;;;;;5017215;28;20301;-88
2021/11/17 08:06:46;;;;;;;6.33;5.23;;;6.30;99.90;;;;;;5019350;28;20208;-88
2021/11/17 08:09:13;;;;;;;7.50;5.67;;;6.20;99.90;;;;;;5019558;28;20194;-88
2021/11/17 08:11:43;;;;;;;8.07;5.40;;;6.20;99.90;;;;;;4993510;28;20194;-87
2021/11/17 08:14:09;;;;;;;5.83;4.50;;;6.20;99.90;;;;;;5019216;28;20206;-88
2021/11/17 08:16:35;;;;;;;5.53;4.63;;;6.20;99.90;;;;;;5019643;28;20233;-88
2021/11/17 08:19:01;;;;;;;6.57;4.50;;;6.20;99.90;;;;;;5002646;28;20209;-88
2021/11/17 08:21:27;;;;;;;5.13;4.20;;;6.30;99.90;;;;;;5017549;28;20209;-88
2021/11/17 08:23:52;;;;;;;6.43;4.60;;;6.30;99.90;;;;;;5013771;28;20198;-88
2021/11/17 08:26:21;;;;;;;4.87;4.10;;;6.30;99.90;;;;;;5004454;28;20217;-88
2021/11/17 08:28:47;;;;;;;5.40;4.00;;;6.30;99.90;;;;;;5019003;28;20295;-88
2021/11/17 08:31:13;;;;;;;4.53;4.10;;;6.40;99.00;;;;;;5017539;28;20316;-88
2021/11/17 08:33:40;;;;;;;4.70;4.10;;;6.40;99.40;;;;;;5000644;28;20661;-88
2021/11/17 08:36:06;;;;;;;5.37;4.00;;;6.40;98.50;;;;;;5018461;28;20226;-88
2021/11/17 08:38:33;;;;;;;6.03;4.60;;;6.40;97.00;;;;;;5004243;28;20198;-88
2021/11/17 08:41:02;;;;;;;5.00;3.97;;;6.50;97.50;;;;;;5003299;28;20232;-88
2021/11/17 08:43:29;;;;;;;4.97;3.73;;;6.60;97.20;;;;;;5002846;28;20752;-88
2021/11/17 08:45:55;;;;;;;4.00;3.60;;;6.70;96.20;;;;;;5018796;28;20214;-89
2021/11/17 08:48:24;;;;;;;7.30;4.93;;;6.70;96.80;;;;;;5019929;28;20209;-88
2021/11/17 08:50:52;;;;;;;4.30;3.60;;;6.60;98.50;;;;;;5021467;28;20189;-88
2021/11/17 08:53:19;;;;;;;4.80;4.10;;;6.70;96.20;;;;;;5022417;28;20280;-88
2021/11/17 08:55:45;;;;;;;4.00;3.60;;;6.70;96.10;;;;;;5002191;28;20220;-88
2021/11/17 08:58:18;;;;;;;4.00;3.40;;;6.80;96.50;;;;;;5004108;28;20223;-88
2021/11/17 09:00:48;;;;;;;8.67;8.07;;;6.80;95.30;;;;;;5004614;28;20269;-88
2021/11/17 09:03:15;;;;;;;5.53;4.17;;;6.80;95.10;;;;;;5020463;28;20207;-88
2021/11/17 09:05:45;;;;;;;6.30;5.27;;;6.80;95.20;;;;;;5018762;28;20213;-88
2021/11/17 09:08:12;;;;;;;6.00;4.83;;;6.80;96.40;;;;;;5020572;28;20261;-88
2021/11/17 09:10:41;;;;;;;5.13;4.63;;;6.60;96.40;;;;;;5002444;28;20211;-88
2021/11/17 09:13:08;;;;;;;6.13;4.40;;;6.50;97.90;;;;;;5006638;28;20196;-88
2021/11/17 09:15:37;;;;;;;4.90;4.40;;;6.50;96.70;;;;;;5010401;28;20232;-88
2021/11/17 09:18:05;;;;;;;5.53;4.50;;;6.60;95.70;;;;;;5027709;28;20194;-88
2021/11/17 09:20:32;;;;;;;6.33;5.67;;;6.60;97.30;;;;;;5022239;28;20648;-88
2021/11/17 09:22:58;;;;;;;4.67;3.77;;;6.70;95.40;;;;;;5004678;28;20216;-88
2021/11/17 09:25:25;;;;;;;6.50;4.10;;;6.80;95.00;;;;;;5000753;28;20210;-88
2021/11/17 09:27:51;;;;;;;3.77;3.47;;;7.00;94.30;;;;;;5019922;28;20190;-88
2021/11/17 09:30:21;;;;;;;4.40;3.83;;;7.00;93.40;;;;;;5009279;28;20185;-88
2021/11/17 09:32:52;;;;;;;4.60;4.00;;;7.00;93.50;;;;;;5026134;28;20200;-89
2021/11/17 09:35:19;;;;;;;5.77;3.30;;;7.00;93.80;;;;;;5024119;28;20241;-88
2021/11/17 09:37:48;;;;;;;4.03;3.57;;;7.10;92.70;;;;;;5026105;28;20196;-89
2021/11/17 09:40:20;;;;;;;3.47;3.17;;;7.20;92.70;;;;;;5025537;28;20256;-89
2021/11/17 09:42:46;;;;;;;2.60;2.40;;;7.20;92.60;;;;;;4999964;28;20193;-89
2021/11/17 09:45:12;;;;;;;3.03;2.50;;;7.30;90.70;;;;;;4997159;28;20312;-89
2021/11/17 09:47:40;;;;;;;2.83;2.60;;;7.40;90.70;;;;;;5028730;28;20280;-89
2021/11/17 09:50:17;;;;;;;3.20;2.60;;;7.40;89.20;;;;;;5024056;28;20232;-89
2021/11/17 09:53:08;;;;;;;4.23;2.70;;;7.30;90.10;;;;;;5000757;28;20231;-88
2021/11/17 09:55:51;;;;;;;3.53;3.13;;;7.40;89.70;;;;;;5013733;28;20295;-89
2021/11/17 09:58:34;;;;;;;4.27;3.00;;;7.40;90.40;;;;;;5031771;28;20178;-89
2021/11/17 10:01:31;;;;;;;4.17;2.83;;;7.50;90.70;;;;;;5009821;28;20596;-88
2021/11/17 10:04:21;;;;;;;2.97;2.70;;;7.50;88.90;;;;;;5021686;28;20217;-88
2021/11/17 10:09:47;;;;;;;4.27;2.83;;;7.30;90.70;;;;;;5026744;28;20197;-88
2021/11/17 10:14:55;;;;;;;3.40;3.00;;;7.30;93.10;;;;;;5019908;28;20226;-88
2021/11/17 10:17:45;;;;;;;4.67;3.30;;;7.40;90.50;;;;;;5025586;28;20297;-89
2021/11/17 10:20:26;;;;;;;4.20;3.40;;;7.40;91.20;;;;;;5009341;28;20224;-88
2021/11/17 10:23:28;;;;;;;3.50;3.20;;;7.50;90.30;;;;;;5029235;28;20231;-89
2021/11/17 10:26:06;;;;;;;5.43;4.47;;;7.40;92.00;;;;;;4998866;28;20200;-89
2021/11/17 10:28:40;;;;;;;3.70;3.00;;;7.40;91.70;;;;;;5010894;28;20190;-88
2021/11/17 10:31:51;;;;;;;3.80;3.30;;;7.40;91.90;;;;;;5032771;28;20185;-89
2021/11/17 10:34:21;;;;;;;6.90;3.20;;;7.10;92.20;;;;;;4992344;28;20228;-89
2021/11/17 10:37:06;;;;;;;3.30;2.87;;;7.20;90.90;;;;;;5019756;28;20205;-89
2021/11/17 10:39:38;;;;;;;4.10;3.00;;;7.20;90.00;;;;;;5023049;28;20197;-89
2021/11/17 10:42:07;;;;;;;4.97;3.00;;;7.30;90.50;;;;;;5023794;28;20217;-88
2021/11/17 10:44:35;;;;;;;3.80;3.40;;;7.20;92.00;;;;;;5006890;28;20202;-88
2021/11/17 10:47:10;;;;;;;3.90;3.50;;;7.20;91.80;;;;;;5015160;28;20192;-89
2021/11/17 10:49:40;;;;;;;5.10;2.80;;;7.20;91.10;;;;;;5030322;28;20208;-88
2021/11/17 10:52:10;;;;;;;4.60;3.00;;;7.30;91.00;;;;;;5027310;28;20196;-88
2021/11/17 10:54:52;;;;;;;4.93;3.67;;;7.30;92.00;;;;;;5019877;28;20182;-88
2021/11/17 10:57:25;;;;;;;4.07;3.53;;;7.40;90.00;;;;;;5005209;28;20177;-88
2021/11/17 10:59:53;;;;;;;3.80;3.13;;;7.30;90.20;;;;;;5024809;28;20200;-89
2021/11/17 11:02:21;;;;;;;3.90;3.60;;;7.20;90.70;;;;;;5022854;28;20217;-88
2021/11/17 11:05:02;;;;;;;4.27;3.80;;;7.20;90.80;;;;;;5023454;28;20236;-88
2021/11/17 11:07:54;;;;;;;5.93;3.33;;;7.20;89.30;;;;;;5019160;28;20526;-88
2021/11/17 11:10:44;;;;;;;3.97;3.40;;;7.30;90.00;;;;;;5024485;28;20221;-88
2021/11/17 11:13:14;;;;;;;4.10;3.50;;;7.30;89.60;;;;;;5024933;28;20189;-88
2021/11/17 11:15:46;;;;;;;4.67;4.17;;;7.30;91.40;;;;;;5030833;28;20210;-88
2021/11/17 11:18:13;;;;;;;4.23;3.60;;;7.20;90.60;;;;;;5006537;28;20641;-88
2021/11/17 11:20:45;;;;;;;3.93;3.57;;;7.30;89.70;;;;;;5020730;28;20182;-88
2021/11/17 11:23:31;;;;;;;3.60;3.30;;;7.20;88.00;;;;;;5020540;28;20200;-88
2021/11/17 11:26:09;;;;;;;3.60;3.10;;;7.20;88.60;;;;;;5022830;28;20689;-88
2021/11/17 11:28:48;;;;;;;4.03;3.10;;;7.20;88.80;;;;;;5013346;28;20190;-88
2021/11/17 11:31:21;;;;;;;4.07;3.67;;;7.30;88.70;;;;;;5016591;28;20228;-88
2021/11/17 11:34:10;;;;;;;3.80;3.13;;;7.20;87.60;;;;;;5024158;28;20181;-88
2021/11/17 11:36:47;;;;;;;3.63;2.93;;;7.20;87.30;;;;;;4961836;28;20233;-88
2021/11/17 11:39:14;;;;;;;3.47;3.17;;;7.20;88.10;;;;;;5014657;28;20190;-88
2021/11/17 11:42:04;;;;;;;3.80;3.27;;;7.20;89.20;;;;;;5024731;28;20209;-88
2021/11/17 11:44:42;;;;;;;3.63;3.30;;;7.10;90.30;;;;;;5023038;28;20194;-88
2021/11/17 11:47:08;;;;;;;3.20;2.90;;;7.10;90.20;;;;;;5009088;28;20194;-88
2021/11/17 11:49:45;;;;;;;4.00;2.77;;;7.10;90.30;;;;;;5032482;28;20264;-88
2021/11/17 11:52:23;;;;;;;3.30;2.80;;;7.10;89.30;;;;;;5006742;28;20186;-88
2021/11/17 11:54:54;;;;;;;3.40;3.10;;;7.20;90.20;;;;;;5022033;28;20221;-88
2021/11/17 11:57:44;;;;;;;9.83;4.00;;;7.20;89.20;;;;;;5016272;28;20190;-89
2021/11/17 12:00:33;;;;;;;3.47;3.17;;;7.30;90.40;;;;;;5028363;28;20193;-89
2021/11/17 12:03:04;;;;;;;4.30;3.03;;;7.40;88.50;;;;;;5020291;28;20190;-89
2021/11/17 12:05:36;;;;;;;3.53;2.77;;;7.40;87.20;;;;;;5005817;28;20210;-88
2021/11/17 12:08:16;;;;;;;3.77;3.23;;;7.50;88.20;;;;;;5017068;28;20253;-89
2021/11/17 12:11:04;;;;;;;4.80;3.73;;;7.50;88.60;;;;;;5030593;28;20200;-88
2021/11/17 12:13:33;;;;;;;3.87;3.30;;;7.50;87.20;;;;;;5032248;28;20269;-88
2021/11/17 12:16:01;;;;;;;3.47;3.17;;;7.60;87.80;;;;;;5010824;28;20213;-87
2021/11/17 12:18:29;;;;;;;4.23;3.83;;;7.70;88.20;;;;;;5009455;28;20243;-89
2021/11/17 12:21:00;;;;;;;3.63;3.33;;;7.70;88.20;;;;;;5025245;28;20220;-89
2021/11/17 12:23:31;;;;;;;4.57;3.37;;;7.80;85.90;;;;;;5028737;28;20201;-89
2021/11/17 12:26:07;;;;;;;4.40;4.00;;;7.80;86.30;;;;;;4997630;28;20262;-89
2021/11/17 12:28:33;;;;;;;4.47;3.83;;;7.80;84.20;;;;;;5027432;28;20682;-89
2021/11/17 12:31:07;;;;;;;4.33;3.40;;;7.70;85.40;;;;;;5016992;28;20190;-89
2021/11/17 12:33:36;;;;;;;4.37;3.97;;;7.50;85.80;;;;;;5006332;28;20196;-90
2021/11/17 12:36:14;;;;;;;4.40;4.07;;;7.40;86.20;;;;;;5012495;28;20237;-90
2021/11/17 12:38:43;;;;;;;3.87;3.50;;;7.40;86.30;;;;;;5030626;28;20196;-90
2021/11/17 12:41:23;;;;;;;3.97;3.50;;;7.40;86.40;;;;;;4991350;28;20240;-89
2021/11/17 12:43:57;;;;;;;4.27;3.43;;;7.40;86.70;;;;;;5008394;28;20198;-90
2021/11/17 12:46:46;;;;;;;3.47;3.13;;;7.30;87.20;;;;;;5011361;28;20205;-91
2021/11/17 12:49:17;;;;;;;4.60;3.33;;;7.30;87.30;;;;;;5021895;28;20281;-90
2021/11/17 12:51:49;;;;;;;11.97;4.67;;;7.30;87.90;;;;;;5024200;28;20210;-89
2021/11/17 12:54:35;;;;;;;4.07;3.60;;;7.70;88.70;;;;;;5024832;28;20181;-90
2021/11/17 12:57:43;;;;;;;4.73;4.27;;;8.10;87.10;;;;;;5015708;28;20249;-90
2021/11/17 13:00:20;;;;;;;4.70;3.90;;;8.10;85.90;;;;;;4985359;28;20209;-91
2021/11/17 13:02:59;;;;;;;3.67;2.97;;;8.00;85.80;;;;;;5018950;28;20244;-89
2021/11/17 13:05:38;;;;;;;3.93;3.53;;;7.90;86.10;;;;;;5016344;28;20240;-90
2021/11/17 13:08:04;;;;;;;4.70;3.43;;;7.70;86.80;;;;;;5027256;28;20201;-90
2021/11/17 13:10:50;;;;;;;4.80;3.73;;;7.60;87.50;;;;;;5000989;28;20198;-90
2021/11/17 13:13:20;;;;;;;6.63;3.80;;;7.80;87.00;;;;;;5020827;28;20687;-91
2021/11/17 13:15:48;;;;;;;7.60;3.83;;;7.70;87.50;;;;;;5028603;28;20209;-89
2021/11/17 13:18:35;;;;;;;4.40;4.00;;;7.60;88.20;;;;;;5021161;28;20228;-89
2021/11/17 13:21:21;;;;;;;5.80;3.50;;;7.90;86.30;;;;;;5021778;28;20227;-91
2021/11/17 13:23:59;;;;;;;4.17;3.77;;;8.00;86.00;;;;;;5022622;28;20268;-90
2021/11/17 13:26:34;;;;;;;4.50;4.10;;;8.00;86.50;;;;;;5021520;28;20338;-90
2021/11/17 13:29:29;;;;;;;5.17;3.97;;;8.10;85.70;;;;;;5004367;28;20759;-89
2021/11/17 13:32:17;;;;;;;3.80;3.50;;;8.10;85.30;;;;;;5004992;28;20185;-90
2021/11/17 13:34:52;;;;;;;4.87;4.37;;;7.90;86.20;;;;;;5029143;28;20209;-90
2021/11/17 13:37:20;;;;;;;5.87;4.50;;;7.80;86.90;;;;;;5016026;28;20189;-90
2021/11/17 13:39:51;;;;;;;6.30;4.60;;;7.80;88.10;;;;;;5008165;28;20190;-90
2021/11/17 13:42:17;;;;;;;4.87;4.27;;;8.00;87.00;;;;;;4993611;28;20217;-90
2021/11/17 13:44:42;;;;;;;4.60;4.20;;;8.00;86.80;;;;;;5001330;28;20209;-91
2021/11/17 13:47:17;;;;;;;5.40;4.90;;;7.90;87.00;;;;;;4984126;28;20190;-88
2021/11/17 13:49:47;;;;;;;4.97;4.30;;;7.70;88.30;;;;;;5003155;28;20174;-89
2021/11/17 13:52:16;;;;;;;7.53;4.43;;;7.60;87.90;;;;;;5021858;28;20205;-89
2021/11/17 13:54:42;;;;;;;7.33;4.57;;;7.80;86.10;;;;;;5018940;28;20231;-91
2021/11/17 13:57:11;;;;;;;7.97;4.87;;;7.90;86.50;;;;;;5021768;28;20193;-90
2021/11/17 13:59:37;;;;;;;4.60;4.20;;;8.00;85.60;;;;;;5018726;28;20755;-90
2021/11/17 14:02:04;;;;;;;5.07;4.60;;;8.10;86.10;;;;;;5003155;28;20210;-90
2021/11/17 14:04:30;;;;;;;5.53;5.00;;;8.10;85.20;;;;;;5002533;28;20221;-91
2021/11/17 14:06:57;;;;;;;6.07;4.83;;;8.00;86.30;;;;;;5009950;28;20196;-90
2021/11/17 14:09:26;;;;;;;5.20;4.70;;;7.90;86.60;;;;;;5024389;28;20192;-90
2021/11/17 14:11:52;;;;;;;5.50;4.70;;;7.90;86.70;;;;;;5021373;28;20170;-90
2021/11/17 14:14:18;;;;;;;9.93;8.37;;;8.10;86.50;;;;;;5017074;28;20250;-90
2021/11/17 14:16:45;;;;;;;28.67;22.73;;;8.10;86.30;;;;;;5026514;28;20201;-90
2021/11/17 14:19:11;;;;;;;4.30;3.90;;;8.00;85.90;;;;;;5032138;28;20201;-90
2021/11/17 14:21:37;;;;;;;5.53;4.83;;;7.90;87.30;;;;;;5031183;28;20216;-90
2021/11/17 14:24:04;;;;;;;8.90;4.50;;;8.00;87.10;;;;;;4990975;28;20188;-91
2021/11/17 14:26:32;;;;;;;6.73;5.93;;;8.10;87.20;;;;;;4984284;28;20213;-90
2021/11/17 14:29:12;;;;;;;5.13;4.63;;;8.10;86.70;;;;;;4980782;28;20244;-89
2021/11/17 14:31:59;;;;;;;5.30;4.80;;;8.00;86.60;;;;;;5021801;28;20737;-90
2021/11/17 14:34:28;;;;;;;6.60;4.83;;;7.90;87.60;;;;;;5021750;28;20188;-90
2021/11/17 14:37:02;;;;;;;8.20;7.40;;;7.90;86.70;;;;;;4987524;28;20212;-90
2021/11/17 14:39:28;;;;;;;4.97;4.47;;;8.00;87.60;;;;;;4996497;28;20190;-90
2021/11/17 14:41:53;;;;;;;4.67;4.27;;;8.00;88.00;;;;;;5022457;28;20220;-89
2021/11/17 14:44:19;;;;;;;7.77;5.30;;;7.90;86.80;;;;;;4996480;28;20194;-90
2021/11/17 14:46:45;;;;;;;4.87;4.40;;;7.90;86.70;;;;;;5015287;28;20597;-90
2021/11/17 14:49:11;;;;;;;6.57;4.57;;;7.80;87.70;;;;;;5015859;28;20178;-90
2021/11/17 14:51:39;;;;;;;5.37;4.87;;;7.90;87.00;;;;;;5013004;28;20205;-90
2021/11/17 14:54:05;;;;;;;6.10;4.47;;;8.00;86.70;;;;;;5001371;28;20233;-90
2021/11/17 14:56:30;;;;;;;5.07;4.57;;;7.90;87.00;;;;;;4988856;28;20228;-89
2021/11/17 14:58:56;;;;;;;5.60;4.50;;;7.90;87.30;;;;;;5017706;28;20190;-91
2021/11/17 15:01:29;;;;;;;5.10;4.57;;;7.80;87.80;;;;;;5013479;28;20209;-89
2021/11/17 15:03:55;;;;;;;5.00;4.03;;;7.70;89.10;;;;;;5003900;28;20206;-90
2021/11/17 15:06:23;;;;;;;4.77;4.30;;;7.90;87.50;;;;;;5003758;28;20236;-90
2021/11/17 15:08:50;;;;;;;6.37;4.37;;;7.80;88.00;;;;;;5002170;28;20193;-90
2021/11/17 15:11:17;;;;;;;4.87;4.37;;;7.90;87.70;;;;;;5019867;28;20202;-90
2021/11/17 15:13:43;;;;;;;5.83;4.40;;;7.90;87.90;;;;;;5008086;28;20190;-90
2021/11/17 15:16:11;;;;;;;3.90;3.50;;;7.80;88.40;;;;;;4985992;28;20210;-90
2021/11/17 15:18:39;;;;;;;4.20;3.80;;;7.90;88.00;;;;;;5018644;28;20205;-89
2021/11/17 15:21:06;;;;;;;4.10;3.70;;;7.90;88.70;;;;;;5019392;28;20292;-88
2021/11/17 15:23:32;;;;;;;4.27;3.87;;;7.90;88.90;;;;;;5017986;28;20239;-89
2021/11/17 15:26:01;;;;;;;6.23;4.60;;;7.90;89.00;;;;;;4996840;28;20206;-89
2021/11/17 15:28:34;;;;;;;5.00;4.50;;;7.90;88.90;;;;;;5016403;28;20353;-89
2021/11/17 15:31:04;;;;;;;8.93;5.17;;;8.00;89.00;;;;;;4999347;28;20190;-89
2021/11/17 15:33:31;;;;;;;5.97;5.40;;;8.00;88.90;;;;;;5014387;28;20200;-89
2021/11/17 15:35:58;;;;;;;5.37;4.23;;;8.10;88.80;;;;;;5028518;28;20221;-91
2021/11/17 15:38:23;;;;;;;5.67;4.97;;;8.00;88.80;;;;;;5025644;28;20189;-90
2021/11/17 15:40:53;;;;;;;4.93;4.40;;;8.10;88.40;;;;;;5004937;28;20189;-89
2021/11/17 15:43:22;;;;;;;8.17;5.63;;;8.10;88.30;;;;;;5020017;28;20190;-89
2021/11/17 15:45:49;;;;;;;5.03;4.00;;;8.00;89.30;;;;;;5009158;28;20212;-89
2021/11/17 15:48:15;;;;;;;5.77;4.27;;;8.00;87.90;;;;;;5004484;28;20270;-89
2021/11/17 15:50:45;;;;;;;5.10;4.17;;;7.90;88.60;;;;;;5002596;28;20205;-89
2021/11/17 15:53:11;;;;;;;4.70;4.13;;;7.90;88.70;;;;;;5022142;28;20212;-89
2021/11/17 15:55:37;;;;;;;5.47;4.20;;;7.80;89.50;;;;;;4986895;28;20209;-89
2021/11/17 15:58:04;;;;;;;4.53;4.13;;;7.70;88.80;;;;;;5021508;28;20189;-89
2021/11/17 16:00:32;;;;;;;5.57;4.67;;;7.80;88.80;;;;;;5015701;28;20208;-89